sensor_id;sensor_type;location;lat;lon;timestamp;temperature;humidity
27114;DHT22;14648;49.730;8.614;2023-05-07T00:02:06;18.30;50.90
27114;DHT22;14648;49.730;8.614;2023-05-07T00:04:32;18.20;51.00
27114;DHT22;14648;49.730;8.614;2023-05-07T00:07:05;18.20;51.00
27114;DHT22;14648;49.730;8.614;2023-05-07T00:09:31;18.20;51.20
27114;DHT22;14648;49.730;8.614;2023-05-07T00:11:56;18.10;51.30
27114;DHT22;14648;49.730;8.614;2023-05-07T00:14:22;18.10;51.30
27114;DHT22;14648;49.730;8.614;2023-05-07T00:16:47;18.10;51.30
27114;DHT22;14648;49.730;8.614;2023-05-07T00:19:13;18.10;51.40
27114;DHT22;14648;49.730;8.614;2023-05-07T00:21:39;18.10;51.40
27114;DHT22;14648;49.730;8.614;2023-05-07T00:24:05;18.10;51.50
27114;DHT22;14648;49.730;8.614;2023-05-07T00:26:30;18.10;51.70
27114;DHT22;14648;49.730;8.614;2023-05-07T00:28:56;18.10;51.70
27114;DHT22;14648;49.730;8.614;2023-05-07T00:31:22;18.10;51.80
27114;DHT22;14648;49.730;8.614;2023-05-07T00:33:47;18.10;51.80
27114;DHT22;14648;49.730;8.614;2023-05-07T00:36:13;18.10;51.80
27114;DHT22;14648;49.730;8.614;2023-05-07T00:38:39;18.00;51.80
27114;DHT22;14648;49.730;8.614;2023-05-07T00:41:04;18.00;51.80
27114;DHT22;14648;49.730;8.614;2023-05-07T00:43:30;18.00;52.00
27114;DHT22;14648;49.730;8.614;2023-05-07T00:45:57;18.00;52.10
27114;DHT22;14648;49.730;8.614;2023-05-07T00:48:22;18.00;52.20
27114;DHT22;14648;49.730;8.614;2023-05-07T00:50:49;18.00;52.90
27114;DHT22;14648;49.730;8.614;2023-05-07T00:53:15;18.00;52.40
27114;DHT22;14648;49.730;8.614;2023-05-07T00:55:41;17.90;52.60
27114;DHT22;14648;49.730;8.614;2023-05-07T00:58:07;17.90;52.70
27114;DHT22;14648;49.730;8.614;2023-05-07T01:00:33;17.90;52.80
27114;DHT22;14648;49.730;8.614;2023-05-07T01:02:59;17.80;52.90
27114;DHT22;14648;49.730;8.614;2023-05-07T01:05:26;17.80;52.90
27114;DHT22;14648;49.730;8.614;2023-05-07T01:07:53;17.80;53.00
27114;DHT22;14648;49.730;8.614;2023-05-07T01:10:20;17.80;53.30
27114;DHT22;14648;49.730;8.614;2023-05-07T01:12:46;17.80;53.30
27114;DHT22;14648;49.730;8.614;2023-05-07T01:15:14;17.70;53.30
27114;DHT22;14648;49.730;8.614;2023-05-07T01:17:41;17.70;53.40
27114;DHT22;14648;49.730;8.614;2023-05-07T01:20:08;17.60;53.50
27114;DHT22;14648;49.730;8.614;2023-05-07T01:22:38;17.60;53.60
27114;DHT22;14648;49.730;8.614;2023-05-07T01:25:05;17.50;53.80
27114;DHT22;14648;49.730;8.614;2023-05-07T01:27:32;17.50;54.00
27114;DHT22;14648;49.730;8.614;2023-05-07T01:29:59;17.40;53.90
27114;DHT22;14648;49.730;8.614;2023-05-07T01:32:44;17.50;54.00
27114;DHT22;14648;49.730;8.614;2023-05-07T01:35:24;17.40;54.10
27114;DHT22;14648;49.730;8.614;2023-05-07T01:37:53;17.30;54.00
27114;DHT22;14648;49.730;8.614;2023-05-07T01:40:19;17.30;54.10
27114;DHT22;14648;49.730;8.614;2023-05-07T01:42:46;17.20;54.00
27114;DHT22;14648;49.730;8.614;2023-05-07T01:45:13;17.20;54.10
27114;DHT22;14648;49.730;8.614;2023-05-07T01:47:39;17.20;54.20
27114;DHT22;14648;49.730;8.614;2023-05-07T01:50:06;17.20;54.20
27114;DHT22;14648;49.730;8.614;2023-05-07T01:52:33;17.20;54.20
27114;DHT22;14648;49.730;8.614;2023-05-07T01:54:59;17.10;54.30
27114;DHT22;14648;49.730;8.614;2023-05-07T01:57:25;17.10;54.40
27114;DHT22;14648;49.730;8.614;2023-05-07T01:59:51;17.00;54.30
27114;DHT22;14648;49.730;8.614;2023-05-07T02:02:16;17.00;54.40
27114;DHT22;14648;49.730;8.614;2023-05-07T02:04:42;17.00;54.50
27114;DHT22;14648;49.730;8.614;2023-05-07T02:07:08;16.90;54.60
27114;DHT22;14648;49.730;8.614;2023-05-07T02:09:33;16.90;54.60
27114;DHT22;14648;49.730;8.614;2023-05-07T02:11:59;16.90;54.60
27114;DHT22;14648;49.730;8.614;2023-05-07T02:14:25;16.80;54.50
27114;DHT22;14648;49.730;8.614;2023-05-07T02:16:51;16.80;54.70
27114;DHT22;14648;49.730;8.614;2023-05-07T02:19:16;16.70;54.80
27114;DHT22;14648;49.730;8.614;2023-05-07T02:21:43;16.70;54.90
27114;DHT22;14648;49.730;8.614;2023-05-07T02:24:09;16.60;54.90
27114;DHT22;14648;49.730;8.614;2023-05-07T02:26:34;16.60;54.90
27114;DHT22;14648;49.730;8.614;2023-05-07T02:29:00;16.60;55.00
27114;DHT22;14648;49.730;8.614;2023-05-07T02:31:26;16.60;55.00
27114;DHT22;14648;49.730;8.614;2023-05-07T02:33:51;16.50;55.10
27114;DHT22;14648;49.730;8.614;2023-05-07T02:36:17;16.50;55.20
27114;DHT22;14648;49.730;8.614;2023-05-07T02:38:43;16.50;55.40
27114;DHT22;14648;49.730;8.614;2023-05-07T02:41:08;16.50;55.50
27114;DHT22;14648;49.730;8.614;2023-05-07T02:43:34;16.50;55.50
27114;DHT22;14648;49.730;8.614;2023-05-07T02:46:04;16.40;55.40
27114;DHT22;14648;49.730;8.614;2023-05-07T02:48:31;16.40;55.50
27114;DHT22;14648;49.730;8.614;2023-05-07T02:50:57;16.40;55.60
27114;DHT22;14648;49.730;8.614;2023-05-07T02:53:23;16.40;55.60
27114;DHT22;14648;49.730;8.614;2023-05-07T02:55:55;16.40;55.80
27114;DHT22;14648;49.730;8.614;2023-05-07T02:58:22;16.40;55.80
27114;DHT22;14648;49.730;8.614;2023-05-07T03:00:47;16.30;55.80
27114;DHT22;14648;49.730;8.614;2023-05-07T03:03:13;16.30;55.90
27114;DHT22;14648;49.730;8.614;2023-05-07T03:05:40;16.30;56.00
27114;DHT22;14648;49.730;8.614;2023-05-07T03:08:06;16.20;56.00
27114;DHT22;14648;49.730;8.614;2023-05-07T03:10:32;16.20;56.10
27114;DHT22;14648;49.730;8.614;2023-05-07T03:12:57;16.20;56.30
27114;DHT22;14648;49.730;8.614;2023-05-07T03:15:23;16.10;56.40
27114;DHT22;14648;49.730;8.614;2023-05-07T03:17:49;16.10;56.50
27114;DHT22;14648;49.730;8.614;2023-05-07T03:20:14;16.10;56.60
27114;DHT22;14648;49.730;8.614;2023-05-07T03:22:40;16.10;56.70
27114;DHT22;14648;49.730;8.614;2023-05-07T03:25:07;16.10;56.80
27114;DHT22;14648;49.730;8.614;2023-05-07T03:27:33;16.00;56.70
27114;DHT22;14648;49.730;8.614;2023-05-07T03:29:59;16.00;56.70
27114;DHT22;14648;49.730;8.614;2023-05-07T03:32:25;16.00;56.70
27114;DHT22;14648;49.730;8.614;2023-05-07T03:34:51;16.00;56.80
27114;DHT22;14648;49.730;8.614;2023-05-07T03:37:16;15.90;56.80
27114;DHT22;14648;49.730;8.614;2023-05-07T03:39:42;16.00;56.90
27114;DHT22;14648;49.730;8.614;2023-05-07T03:42:08;15.90;56.90
27114;DHT22;14648;49.730;8.614;2023-05-07T03:44:36;15.90;57.00
27114;DHT22;14648;49.730;8.614;2023-05-07T03:47:03;15.90;57.80
27114;DHT22;14648;49.730;8.614;2023-05-07T03:49:29;15.90;57.10
27114;DHT22;14648;49.730;8.614;2023-05-07T03:51:55;15.90;57.20
27114;DHT22;14648;49.730;8.614;2023-05-07T03:54:21;15.80;57.10
27114;DHT22;14648;49.730;8.614;2023-05-07T03:56:50;15.80;57.20
27114;DHT22;14648;49.730;8.614;2023-05-07T03:59:15;15.80;57.30
27114;DHT22;14648;49.730;8.614;2023-05-07T04:01:41;15.80;57.30
27114;DHT22;14648;49.730;8.614;2023-05-07T04:04:06;15.80;57.30
27114;DHT22;14648;49.730;8.614;2023-05-07T04:06:32;15.70;57.30
27114;DHT22;14648;49.730;8.614;2023-05-07T04:08:58;15.70;57.30
27114;DHT22;14648;49.730;8.614;2023-05-07T04:11:23;15.70;58.20
27114;DHT22;14648;49.730;8.614;2023-05-07T04:13:50;15.70;57.50
27114;DHT22;14648;49.730;8.614;2023-05-07T04:16:16;15.70;57.70
27114;DHT22;14648;49.730;8.614;2023-05-07T04:18:41;15.70;57.70
27114;DHT22;14648;49.730;8.614;2023-05-07T04:21:35;15.70;57.70
27114;DHT22;14648;49.730;8.614;2023-05-07T04:24:16;15.60;57.80
27114;DHT22;14648;49.730;8.614;2023-05-07T04:26:45;15.60;57.60
27114;DHT22;14648;49.730;8.614;2023-05-07T04:29:11;15.60;57.80
27114;DHT22;14648;49.730;8.614;2023-05-07T04:31:37;15.60;57.90
27114;DHT22;14648;49.730;8.614;2023-05-07T04:34:03;15.60;58.10
27114;DHT22;14648;49.730;8.614;2023-05-07T04:36:28;15.50;58.30
27114;DHT22;14648;49.730;8.614;2023-05-07T04:38:54;15.60;58.30
27114;DHT22;14648;49.730;8.614;2023-05-07T04:41:20;15.60;58.30
27114;DHT22;14648;49.730;8.614;2023-05-07T04:43:46;15.70;58.30
27114;DHT22;14648;49.730;8.614;2023-05-07T04:46:11;15.70;58.30
27114;DHT22;14648;49.730;8.614;2023-05-07T04:48:37;15.70;58.20
27114;DHT22;14648;49.730;8.614;2023-05-07T04:51:03;15.70;58.40
27114;DHT22;14648;49.730;8.614;2023-05-07T04:53:28;15.80;58.40
27114;DHT22;14648;49.730;8.614;2023-05-07T04:55:55;15.80;58.40
27114;DHT22;14648;49.730;8.614;2023-05-07T04:58:22;15.80;58.60
27114;DHT22;14648;49.730;8.614;2023-05-07T05:00:48;15.90;58.60
27114;DHT22;14648;49.730;8.614;2023-05-07T05:03:15;15.80;58.60
27114;DHT22;14648;49.730;8.614;2023-05-07T05:05:41;15.90;58.70
27114;DHT22;14648;49.730;8.614;2023-05-07T05:08:07;15.90;58.80
27114;DHT22;14648;49.730;8.614;2023-05-07T05:10:33;15.90;58.70
27114;DHT22;14648;49.730;8.614;2023-05-07T05:12:58;16.00;58.80
27114;DHT22;14648;49.730;8.614;2023-05-07T05:15:24;16.00;58.90
27114;DHT22;14648;49.730;8.614;2023-05-07T05:17:50;16.00;58.90
27114;DHT22;14648;49.730;8.614;2023-05-07T05:20:15;16.00;59.00
27114;DHT22;14648;49.730;8.614;2023-05-07T05:22:42;16.10;59.10
27114;DHT22;14648;49.730;8.614;2023-05-07T05:25:07;16.10;59.10
27114;DHT22;14648;49.730;8.614;2023-05-07T05:27:34;16.10;59.10
27114;DHT22;14648;49.730;8.614;2023-05-07T05:30:01;16.20;59.20
27114;DHT22;14648;49.730;8.614;2023-05-07T05:32:26;16.20;59.20
27114;DHT22;14648;49.730;8.614;2023-05-07T05:34:52;16.30;59.30
27114;DHT22;14648;49.730;8.614;2023-05-07T05:37:18;16.30;59.30
27114;DHT22;14648;49.730;8.614;2023-05-07T05:39:44;16.40;59.20
27114;DHT22;14648;49.730;8.614;2023-05-07T05:42:09;16.40;59.20
27114;DHT22;14648;49.730;8.614;2023-05-07T05:44:35;16.40;59.20
27114;DHT22;14648;49.730;8.614;2023-05-07T05:47:01;16.50;59.30
27114;DHT22;14648;49.730;8.614;2023-05-07T05:49:26;16.60;59.30
27114;DHT22;14648;49.730;8.614;2023-05-07T05:51:52;16.60;59.30
27114;DHT22;14648;49.730;8.614;2023-05-07T05:54:18;16.60;59.30
27114;DHT22;14648;49.730;8.614;2023-05-07T05:56:43;16.60;59.30
27114;DHT22;14648;49.730;8.614;2023-05-07T05:59:09;16.70;59.50
27114;DHT22;14648;49.730;8.614;2023-05-07T06:01:35;16.80;59.40
27114;DHT22;14648;49.730;8.614;2023-05-07T06:04:01;16.80;59.50
27114;DHT22;14648;49.730;8.614;2023-05-07T06:06:26;16.80;59.50
27114;DHT22;14648;49.730;8.614;2023-05-07T06:08:52;16.90;59.50
27114;DHT22;14648;49.730;8.614;2023-05-07T06:11:18;16.90;59.50
27114;DHT22;14648;49.730;8.614;2023-05-07T06:13:46;16.90;59.40
27114;DHT22;14648;49.730;8.614;2023-05-07T06:16:12;16.90;59.40
27114;DHT22;14648;49.730;8.614;2023-05-07T06:18:38;17.00;59.30
27114;DHT22;14648;49.730;8.614;2023-05-07T06:21:03;17.00;59.40
27114;DHT22;14648;49.730;8.614;2023-05-07T06:23:29;17.00;59.40
27114;DHT22;14648;49.730;8.614;2023-05-07T06:25:55;17.10;59.40
27114;DHT22;14648;49.730;8.614;2023-05-07T06:28:22;17.10;59.40
27114;DHT22;14648;49.730;8.614;2023-05-07T06:30:48;17.10;59.40
27114;DHT22;14648;49.730;8.614;2023-05-07T06:33:15;17.20;59.30
27114;DHT22;14648;49.730;8.614;2023-05-07T06:35:41;17.20;59.30
27114;DHT22;14648;49.730;8.614;2023-05-07T06:38:07;17.20;59.30
27114;DHT22;14648;49.730;8.614;2023-05-07T06:40:33;17.30;59.50
27114;DHT22;14648;49.730;8.614;2023-05-07T06:42:58;17.30;59.40
27114;DHT22;14648;49.730;8.614;2023-05-07T06:45:24;17.40;59.30
27114;DHT22;14648;49.730;8.614;2023-05-07T06:47:52;17.40;59.30
27114;DHT22;14648;49.730;8.614;2023-05-07T06:50:18;17.50;59.40
27114;DHT22;14648;49.730;8.614;2023-05-07T06:52:44;17.50;59.30
27114;DHT22;14648;49.730;8.614;2023-05-07T06:55:10;17.60;59.30
27114;DHT22;14648;49.730;8.614;2023-05-07T06:57:37;17.60;59.40
27114;DHT22;14648;49.730;8.614;2023-05-07T07:00:04;17.60;59.40
27114;DHT22;14648;49.730;8.614;2023-05-07T07:02:32;17.70;59.50
27114;DHT22;14648;49.730;8.614;2023-05-07T07:04:58;17.70;59.40
27114;DHT22;14648;49.730;8.614;2023-05-07T07:07:23;17.80;59.40
27114;DHT22;14648;49.730;8.614;2023-05-07T07:09:49;17.80;59.30
27114;DHT22;14648;49.730;8.614;2023-05-07T07:12:16;17.90;59.30
27114;DHT22;14648;49.730;8.614;2023-05-07T07:14:42;18.00;59.20
27114;DHT22;14648;49.730;8.614;2023-05-07T07:17:08;18.00;59.20
27114;DHT22;14648;49.730;8.614;2023-05-07T07:19:33;18.20;59.20
27114;DHT22;14648;49.730;8.614;2023-05-07T07:21:59;18.20;59.10
27114;DHT22;14648;49.730;8.614;2023-05-07T07:24:25;18.20;59.00
27114;DHT22;14648;49.730;8.614;2023-05-07T07:26:50;18.30;58.90
27114;DHT22;14648;49.730;8.614;2023-05-07T07:29:16;18.40;58.80
27114;DHT22;14648;49.730;8.614;2023-05-07T07:31:43;18.30;58.70
27114;DHT22;14648;49.730;8.614;2023-05-07T07:34:09;18.40;59.40
27114;DHT22;14648;49.730;8.614;2023-05-07T07:36:35;18.50;58.70
27114;DHT22;14648;49.730;8.614;2023-05-07T07:39:00;18.60;58.60
27114;DHT22;14648;49.730;8.614;2023-05-07T07:41:26;18.60;58.50
27114;DHT22;14648;49.730;8.614;2023-05-07T07:43:52;18.70;58.50
27114;DHT22;14648;49.730;8.614;2023-05-07T07:46:17;18.70;58.40
27114;DHT22;14648;49.730;8.614;2023-05-07T07:48:43;18.80;58.30
27114;DHT22;14648;49.730;8.614;2023-05-07T07:51:08;18.90;58.30
27114;DHT22;14648;49.730;8.614;2023-05-07T07:53:34;19.00;58.30
27114;DHT22;14648;49.730;8.614;2023-05-07T07:56:02;19.00;58.30
27114;DHT22;14648;49.730;8.614;2023-05-07T07:58:28;19.10;58.40
27114;DHT22;14648;49.730;8.614;2023-05-07T08:00:55;19.10;58.40
27114;DHT22;14648;49.730;8.614;2023-05-07T08:03:21;19.10;58.40
27114;DHT22;14648;49.730;8.614;2023-05-07T08:05:47;19.20;58.40
27114;DHT22;14648;49.730;8.614;2023-05-07T08:08:15;19.30;58.40
27114;DHT22;14648;49.730;8.614;2023-05-07T08:10:41;19.30;58.30
27114;DHT22;14648;49.730;8.614;2023-05-07T08:13:07;19.30;58.20
27114;DHT22;14648;49.730;8.614;2023-05-07T08:15:32;19.40;58.20
27114;DHT22;14648;49.730;8.614;2023-05-07T08:17:58;19.40;58.20
27114;DHT22;14648;49.730;8.614;2023-05-07T08:20:25;19.50;58.10
27114;DHT22;14648;49.730;8.614;2023-05-07T08:22:51;19.50;57.90
27114;DHT22;14648;49.730;8.614;2023-05-07T08:25:17;19.50;57.90
27114;DHT22;14648;49.730;8.614;2023-05-07T08:27:43;19.60;57.90
27114;DHT22;14648;49.730;8.614;2023-05-07T08:30:10;19.50;57.90
27114;DHT22;14648;49.730;8.614;2023-05-07T08:32:36;19.60;57.80
27114;DHT22;14648;49.730;8.614;2023-05-07T08:35:02;19.70;57.80
27114;DHT22;14648;49.730;8.614;2023-05-07T08:37:28;19.80;57.80
27114;DHT22;14648;49.730;8.614;2023-05-07T08:39:54;19.80;57.80
27114;DHT22;14648;49.730;8.614;2023-05-07T08:42:20;19.90;57.70
27114;DHT22;14648;49.730;8.614;2023-05-07T08:44:51;19.90;57.60
27114;DHT22;14648;49.730;8.614;2023-05-07T08:47:19;20.10;57.60
27114;DHT22;14648;49.730;8.614;2023-05-07T08:49:48;20.20;57.50
27114;DHT22;14648;49.730;8.614;2023-05-07T08:52:15;20.20;57.40
27114;DHT22;14648;49.730;8.614;2023-05-07T08:54:40;20.30;57.50
27114;DHT22;14648;49.730;8.614;2023-05-07T08:57:06;20.40;57.50
27114;DHT22;14648;49.730;8.614;2023-05-07T08:59:32;20.50;57.30
27114;DHT22;14648;49.730;8.614;2023-05-07T09:01:58;20.60;57.00
27114;DHT22;14648;49.730;8.614;2023-05-07T09:04:23;20.60;57.00
27114;DHT22;14648;49.730;8.614;2023-05-07T09:06:49;20.70;56.80
27114;DHT22;14648;49.730;8.614;2023-05-07T09:09:17;20.90;56.40
27114;DHT22;14648;49.730;8.614;2023-05-07T09:11:44;20.90;56.10
27114;DHT22;14648;49.730;8.614;2023-05-07T09:14:09;21.10;55.90
27114;DHT22;14648;49.730;8.614;2023-05-07T09:16:35;21.20;55.60
27114;DHT22;14648;49.730;8.614;2023-05-07T09:19:01;21.30;55.30
27114;DHT22;14648;49.730;8.614;2023-05-07T09:21:26;21.40;55.00
27114;DHT22;14648;49.730;8.614;2023-05-07T09:23:54;21.50;54.90
27114;DHT22;14648;49.730;8.614;2023-05-07T09:26:24;21.50;54.70
27114;DHT22;14648;49.730;8.614;2023-05-07T09:28:51;21.60;54.40
27114;DHT22;14648;49.730;8.614;2023-05-07T09:31:19;21.80;54.40
27114;DHT22;14648;49.730;8.614;2023-05-07T09:33:46;22.00;54.20
27114;DHT22;14648;49.730;8.614;2023-05-07T09:36:12;22.10;53.70
27114;DHT22;14648;49.730;8.614;2023-05-07T09:38:38;22.30;53.50
27114;DHT22;14648;49.730;8.614;2023-05-07T09:41:05;22.40;53.00
27114;DHT22;14648;49.730;8.614;2023-05-07T09:43:36;22.50;52.40
27114;DHT22;14648;49.730;8.614;2023-05-07T09:46:07;22.50;52.10
27114;DHT22;14648;49.730;8.614;2023-05-07T09:48:44;22.60;51.60
27114;DHT22;14648;49.730;8.614;2023-05-07T09:51:22;22.60;51.40
27114;DHT22;14648;49.730;8.614;2023-05-07T09:53:57;22.70;51.10
27114;DHT22;14648;49.730;8.614;2023-05-07T09:56:26;22.70;51.20
27114;DHT22;14648;49.730;8.614;2023-05-07T09:58:54;22.70;51.70
27114;DHT22;14648;49.730;8.614;2023-05-07T10:01:20;22.80;50.80
27114;DHT22;14648;49.730;8.614;2023-05-07T10:03:48;22.80;50.60
27114;DHT22;14648;49.730;8.614;2023-05-07T10:06:16;22.80;50.50
27114;DHT22;14648;49.730;8.614;2023-05-07T10:08:44;23.00;50.40
27114;DHT22;14648;49.730;8.614;2023-05-07T10:11:10;23.20;50.20
27114;DHT22;14648;49.730;8.614;2023-05-07T10:13:37;23.30;50.00
27114;DHT22;14648;49.730;8.614;2023-05-07T10:16:06;23.40;49.80
27114;DHT22;14648;49.730;8.614;2023-05-07T10:18:33;23.50;49.50
27114;DHT22;14648;49.730;8.614;2023-05-07T10:21:19;23.60;49.30
27114;DHT22;14648;49.730;8.614;2023-05-07T10:23:51;23.70;48.80
27114;DHT22;14648;49.730;8.614;2023-05-07T10:26:21;23.70;46.20
27114;DHT22;14648;49.730;8.614;2023-05-07T10:28:53;23.70;46.70
27114;DHT22;14648;49.730;8.614;2023-05-07T10:34:41;23.50;46.40
27114;DHT22;14648;49.730;8.614;2023-05-07T10:37:09;23.50;46.50
27114;DHT22;14648;49.730;8.614;2023-05-07T10:39:36;23.40;46.00
27114;DHT22;14648;49.730;8.614;2023-05-07T10:42:09;23.40;46.80
27114;DHT22;14648;49.730;8.614;2023-05-07T10:44:36;23.50;47.00
27114;DHT22;14648;49.730;8.614;2023-05-07T10:47:16;23.70;47.30
27114;DHT22;14648;49.730;8.614;2023-05-07T10:52:23;24.00;47.50
27114;DHT22;14648;49.730;8.614;2023-05-07T10:57:50;24.30;47.00
27114;DHT22;14648;49.730;8.614;2023-05-07T11:05:29;24.80;46.40
27114;DHT22;14648;49.730;8.614;2023-05-07T11:08:01;24.90;46.30
27114;DHT22;14648;49.730;8.614;2023-05-07T11:10:59;25.00;46.60
27114;DHT22;14648;49.730;8.614;2023-05-07T11:13:44;25.30;45.80
27114;DHT22;14648;49.730;8.614;2023-05-07T11:16:18;25.50;46.10
27114;DHT22;14648;49.730;8.614;2023-05-07T11:18:54;25.70;45.20
27114;DHT22;14648;49.730;8.614;2023-05-07T11:21:34;26.00;45.30
27114;DHT22;14648;49.730;8.614;2023-05-07T11:24:05;26.10;44.80
27114;DHT22;14648;49.730;8.614;2023-05-07T11:26:46;26.30;44.70
27114;DHT22;14648;49.730;8.614;2023-05-07T11:29:21;26.40;44.30
27114;DHT22;14648;49.730;8.614;2023-05-07T11:31:51;26.60;43.80
27114;DHT22;14648;49.730;8.614;2023-05-07T11:34:22;26.60;43.40
27114;DHT22;14648;49.730;8.614;2023-05-07T11:36:49;26.60;43.60
27114;DHT22;14648;49.730;8.614;2023-05-07T11:39:32;26.60;43.20
27114;DHT22;14648;49.730;8.614;2023-05-07T11:42:01;26.60;43.10
27114;DHT22;14648;49.730;8.614;2023-05-07T11:44:41;26.70;43.10
27114;DHT22;14648;49.730;8.614;2023-05-07T11:47:07;26.70;42.40
27114;DHT22;14648;49.730;8.614;2023-05-07T11:49:34;26.70;42.30
27114;DHT22;14648;49.730;8.614;2023-05-07T11:51:59;26.70;42.40
27114;DHT22;14648;49.730;8.614;2023-05-07T11:54:25;26.80;42.20
27114;DHT22;14648;49.730;8.614;2023-05-07T11:56:51;27.00;42.40
27114;DHT22;14648;49.730;8.614;2023-05-07T11:59:18;27.20;41.80
27114;DHT22;14648;49.730;8.614;2023-05-07T12:01:45;27.40;41.30
27114;DHT22;14648;49.730;8.614;2023-05-07T12:04:12;27.50;40.90
27114;DHT22;14648;49.730;8.614;2023-05-07T12:06:38;27.70;40.40
27114;DHT22;14648;49.730;8.614;2023-05-07T12:09:04;27.90;40.10
27114;DHT22;14648;49.730;8.614;2023-05-07T12:11:32;28.10;40.30
27114;DHT22;14648;49.730;8.614;2023-05-07T12:13:58;28.20;40.60
27114;DHT22;14648;49.730;8.614;2023-05-07T12:16:23;28.40;40.30
27114;DHT22;14648;49.730;8.614;2023-05-07T12:18:50;28.40;39.90
27114;DHT22;14648;49.730;8.614;2023-05-07T12:21:18;28.60;39.20
27114;DHT22;14648;49.730;8.614;2023-05-07T12:23:44;28.70;39.00
27114;DHT22;14648;49.730;8.614;2023-05-07T12:26:10;28.80;38.70
27114;DHT22;14648;49.730;8.614;2023-05-07T12:28:37;28.90;38.90
27114;DHT22;14648;49.730;8.614;2023-05-07T12:31:07;29.00;39.30
27114;DHT22;14648;49.730;8.614;2023-05-07T12:33:34;29.20;38.80
27114;DHT22;14648;49.730;8.614;2023-05-07T12:36:04;29.40;38.20
27114;DHT22;14648;49.730;8.614;2023-05-07T12:38:35;29.60;37.50
27114;DHT22;14648;49.730;8.614;2023-05-07T12:41:02;29.70;37.20
27114;DHT22;14648;49.730;8.614;2023-05-07T12:43:28;29.80;37.30
27114;DHT22;14648;49.730;8.614;2023-05-07T12:45:56;30.00;37.50
27114;DHT22;14648;49.730;8.614;2023-05-07T12:48:23;30.10;37.00
27114;DHT22;14648;49.730;8.614;2023-05-07T12:50:53;30.20;36.90
27114;DHT22;14648;49.730;8.614;2023-05-07T12:53:21;30.40;36.10
27114;DHT22;14648;49.730;8.614;2023-05-07T12:55:49;30.40;35.80
27114;DHT22;14648;49.730;8.614;2023-05-07T12:58:35;30.40;35.80
27114;DHT22;14648;49.730;8.614;2023-05-07T13:01:05;30.10;35.30
27114;DHT22;14648;49.730;8.614;2023-05-07T13:03:37;29.70;35.50
27114;DHT22;14648;49.730;8.614;2023-05-07T13:06:06;29.50;35.40
27114;DHT22;14648;49.730;8.614;2023-05-07T13:08:40;29.30;35.10
27114;DHT22;14648;49.730;8.614;2023-05-07T13:11:09;29.10;35.30
27114;DHT22;14648;49.730;8.614;2023-05-07T13:13:37;28.90;35.10
27114;DHT22;14648;49.730;8.614;2023-05-07T13:16:07;28.70;35.50
27114;DHT22;14648;49.730;8.614;2023-05-07T13:18:34;28.60;35.80
27114;DHT22;14648;49.730;8.614;2023-05-07T13:21:01;28.40;35.90
27114;DHT22;14648;49.730;8.614;2023-05-07T13:23:28;28.30;36.00
27114;DHT22;14648;49.730;8.614;2023-05-07T13:25:54;28.10;36.30
27114;DHT22;14648;49.730;8.614;2023-05-07T13:28:21;28.00;36.50
27114;DHT22;14648;49.730;8.614;2023-05-07T13:30:47;27.90;36.10
27114;DHT22;14648;49.730;8.614;2023-05-07T13:33:13;27.70;36.40
27114;DHT22;14648;49.730;8.614;2023-05-07T13:35:40;27.60;36.80
27114;DHT22;14648;49.730;8.614;2023-05-07T13:38:06;27.50;37.00
27114;DHT22;14648;49.730;8.614;2023-05-07T13:40:32;27.40;37.10
27114;DHT22;14648;49.730;8.614;2023-05-07T13:42:58;27.30;37.00
27114;DHT22;14648;49.730;8.614;2023-05-07T13:45:26;27.10;37.10
27114;DHT22;14648;49.730;8.614;2023-05-07T13:47:55;27.00;37.20
27114;DHT22;14648;49.730;8.614;2023-05-07T13:50:21;26.90;36.60
27114;DHT22;14648;49.730;8.614;2023-05-07T13:52:47;26.70;36.90
27114;DHT22;14648;49.730;8.614;2023-05-07T13:55:25;26.60;36.90
27114;DHT22;14648;49.730;8.614;2023-05-07T13:57:56;26.50;37.20
27114;DHT22;14648;49.730;8.614;2023-05-07T14:00:23;26.40;37.30
27114;DHT22;14648;49.730;8.614;2023-05-07T14:02:50;26.30;37.50
27114;DHT22;14648;49.730;8.614;2023-05-07T14:05:16;26.20;37.70
27114;DHT22;14648;49.730;8.614;2023-05-07T14:07:41;26.10;37.90
27114;DHT22;14648;49.730;8.614;2023-05-07T14:10:07;26.10;38.20
27114;DHT22;14648;49.730;8.614;2023-05-07T14:12:34;26.00;38.30
27114;DHT22;14648;49.730;8.614;2023-05-07T14:15:00;25.90;38.10
27114;DHT22;14648;49.730;8.614;2023-05-07T14:17:26;25.80;38.10
27114;DHT22;14648;49.730;8.614;2023-05-07T14:19:53;25.70;38.20
27114;DHT22;14648;49.730;8.614;2023-05-07T14:22:22;25.60;38.30
27114;DHT22;14648;49.730;8.614;2023-05-07T14:24:49;25.50;38.40
27114;DHT22;14648;49.730;8.614;2023-05-07T14:27:15;25.50;38.50
27114;DHT22;14648;49.730;8.614;2023-05-07T14:29:41;25.40;38.60
27114;DHT22;14648;49.730;8.614;2023-05-07T14:32:07;25.30;38.90
27114;DHT22;14648;49.730;8.614;2023-05-07T14:34:33;25.20;39.20
27114;DHT22;14648;49.730;8.614;2023-05-07T14:37:00;25.10;39.30
27114;DHT22;14648;49.730;8.614;2023-05-07T14:39:25;25.10;39.00
27114;DHT22;14648;49.730;8.614;2023-05-07T14:41:51;25.00;39.50
27114;DHT22;14648;49.730;8.614;2023-05-07T14:44:20;24.90;39.60
27114;DHT22;14648;49.730;8.614;2023-05-07T14:46:46;24.90;39.60
27114;DHT22;14648;49.730;8.614;2023-05-07T14:49:11;24.80;39.60
27114;DHT22;14648;49.730;8.614;2023-05-07T14:51:45;24.70;39.70
27114;DHT22;14648;49.730;8.614;2023-05-07T14:54:13;24.60;39.90
27114;DHT22;14648;49.730;8.614;2023-05-07T14:56:39;24.50;40.00
27114;DHT22;14648;49.730;8.614;2023-05-07T14:59:05;24.50;40.20
27114;DHT22;14648;49.730;8.614;2023-05-07T15:01:32;24.50;40.40
27114;DHT22;14648;49.730;8.614;2023-05-07T15:03:57;24.40;40.60
27114;DHT22;14648;49.730;8.614;2023-05-07T15:06:23;24.30;40.80
27114;DHT22;14648;49.730;8.614;2023-05-07T15:08:49;24.20;41.50
27114;DHT22;14648;49.730;8.614;2023-05-07T15:11:15;24.20;41.00
27114;DHT22;14648;49.730;8.614;2023-05-07T15:13:42;24.10;41.10
27114;DHT22;14648;49.730;8.614;2023-05-07T15:16:08;24.00;41.40
27114;DHT22;14648;49.730;8.614;2023-05-07T15:18:33;24.00;41.50
27114;DHT22;14648;49.730;8.614;2023-05-07T15:20:59;23.90;41.80
27114;DHT22;14648;49.730;8.614;2023-05-07T15:23:25;23.80;42.20
27114;DHT22;14648;49.730;8.614;2023-05-07T15:25:52;23.60;42.70
27114;DHT22;14648;49.730;8.614;2023-05-07T15:28:18;23.30;43.30
27114;DHT22;14648;49.730;8.614;2023-05-07T15:30:44;22.80;44.50
27114;DHT22;14648;49.730;8.614;2023-05-07T15:33:10;22.20;45.60
27114;DHT22;14648;49.730;8.614;2023-05-07T15:35:36;21.80;46.70
27114;DHT22;14648;49.730;8.614;2023-05-07T15:38:02;21.50;47.60
27114;DHT22;14648;49.730;8.614;2023-05-07T15:40:29;21.10;48.30
27114;DHT22;14648;49.730;8.614;2023-05-07T15:42:55;20.70;49.20
27114;DHT22;14648;49.730;8.614;2023-05-07T15:45:22;20.30;49.90